Airfield :
LOGIN :

Register | Disclaimer

   EN    FR    IT 

 










Legend :    VFR   Marginal VFR   IFR   Intensive IFR   Very Intensive IFR
Visi :
Ceiling :
>= 8 km
>= 3000ft
5 to 8 km
1000 to 3000 ft
1500m to 5 km
500 to 1000 ft
800 to 1500m
200 to 500 ft
< 800m
< 200 ft
Symbols :   Thunderstorms  Fog  Heavy snow  Heavy precipitations  Wind > 20 kt
SIGMETs :     Misc.  Thunderstorms  Icing  Turbulence  Mountain Waves  Volcanic Ashes







- Airport Elevation : 512 ft
- IATA code : URO
- Download approach charts


LFOP - Rouen Vallée de Seine

CURRENT METAR :
  • 250330Z AUTO 16010KT 140V200 9999 SCT045/// BKN058/// OVC068/// ///TCU 09/08 Q0998

EXPIRED METARs :
  • 250300Z AUTO 18009KT 9999 -RA FEW008/// BKN045/// OVC052/// ///TCU 09/08 Q0998
  • 250230Z AUTO 17008KT 9999 4400 RA SCT006/// BKN010/// BKN015/// ///CB 10/09 Q0998
  • 250200Z AUTO 15011KT 9999 -RA BKN008/// OVC012/// ///CB 10/09 Q0998
  • 250130Z AUTO 14013KT 9999 -RA SCT010/// BKN015/// BKN032/// ///CB 10/09 Q0998
  • 250100Z AUTO 13011KT 9999 -RA BKN028/// OVC036/// ///CB 09/08 Q0998

TAF TAF LFOP
Valid from the 24 at 18:00 until the 25 at 18:00 UTC


241700Z 2418/2518 16010KT 9999 SCT040
TEMPO 2419/2421 3000 SHRA BKN030CB
TEMPO 2501/2518 16015G25KT 4000 RA BKN012 BKN030TCU
PROB40
TEMPO 2513/2518 VRB20G35KT 2000 TSRA BKN030CB
ATIS : +33 2 35 80 80 34
Met : +33 2 32 86 52 80
No reported NOTAMs for that airfield.
2 SIGMETs reported for the Paris FIR (LFFF) :
 
Severe turbulence
LFFF SIGMET 12 VALID 242300/250300 LFPW
LFFF PARIS FIR/UIR SEV TURB FCST WI N4745 E00445 - N4730 E00415 - N4630 E00445 - N4630 E00300 - N4800 E00430 - N4745 E00445 SFC/FL080 STNR NC=
Severe turbulence
LFFF SIGMET 1 VALID 250300/250700 LFPW
LFFF PARIS FIR/UIR SEV TURB FCST WI N4745 E00445 - N4730 E00415 - N4630 E00445 - N4630 E00300 - N4745 E00415 - N4745 E00445 SFC/FL080 STNR NC=



MET'MAP, your aeronautical weather chart ! - Copyright ORBIFLY December 2007 - Disclaimer

ORBIFLY MET'MAP TEAM :

Programming & Development : Alexandra Zaïnal
Concept & Development : Baudouin d'Aumeries
Co-Development & Prog : Marc-Olivier Méhu
Technical & hardware support : Manuel Goepfert

Contact : metmap@orbifly.com




SOURCES & CREDITS :

   NOAA